Time;durP1;ratioP1;P1;durP2;ratioP2;P2;SDS_P1;SDS_P2;PMS_P1;PMS_P2;Temp;Humidity;BMP_temperature;BMP_pressure;BME280_temperature;BME280_humidity;BME280_pressure;Samples;Min_cycle;Max_cycle;Signal;HPM_P1;HPM_P2
2022/03/16 00:01:54;;;;;;;86.57;42.38;;;;;;;3.83;100.00;95518.97;4941347;29;20031;-90
2022/03/16 00:04:19;;;;;;;88.85;39.55;;;;;;;3.78;100.00;95521.34;4941306;29;20028;-90
2022/03/16 00:06:45;;;;;;;81.60;42.05;;;;;;;3.70;100.00;95519.72;4941081;29;20034;-91
2022/03/16 00:09:12;;;;;;;88.25;41.72;;;;;;;3.57;100.00;95519.69;4925384;29;20034;-90
2022/03/16 00:11:38;;;;;;;84.82;42.38;;;;;;;3.55;100.00;95522.47;4941011;29;20031;-91
2022/03/16 00:14:03;;;;;;;89.13;42.42;;;;;;;3.74;100.00;95523.56;4958149;29;20035;-90
2022/03/16 00:16:29;;;;;;;90.97;41.53;;;;;;;3.68;100.00;95521.72;4941230;29;20433;-91
2022/03/16 00:18:54;;;;;;;91.95;43.13;;;;;;;3.68;100.00;95526.91;4925319;29;20425;-90
2022/03/16 00:21:20;;;;;;;98.72;43.50;;;;;;;3.81;100.00;95518.38;4944585;29;20027;-91
2022/03/16 00:23:45;;;;;;;89.72;43.25;;;;;;;3.96;100.00;95523.38;4961692;29;20079;-91
2022/03/16 00:26:11;;;;;;;95.65;42.70;;;;;;;3.94;100.00;95518.38;4961728;29;20019;-90
2022/03/16 00:28:36;;;;;;;82.30;42.75;;;;;;;4.04;100.00;95509.44;4961647;29;20118;-90
2022/03/16 00:31:02;;;;;;;84.13;42.80;;;;;;;4.07;100.00;95519.41;4944379;29;20039;-90
2022/03/16 00:33:28;;;;;;;86.55;42.50;;;;;;;4.07;100.00;95515.03;4928713;29;20115;-90
2022/03/16 00:35:53;;;;;;;82.70;40.97;;;;;;;4.09;100.00;95513.03;4928697;29;20039;-90
2022/03/16 00:38:19;;;;;;;90.90;40.00;;;;;;;4.24;100.00;95517.25;4928686;29;20027;-90
2022/03/16 00:40:44;;;;;;;86.90;42.20;;;;;;;4.14;100.00;95511.63;4944237;29;20352;-90
2022/03/16 00:43:10;;;;;;;82.10;41.45;;;;;;;4.01;100.00;95502.06;4944493;29;20436;-91
2022/03/16 00:45:35;;;;;;;86.22;42.53;;;;;;;3.99;100.00;95498.88;4944135;29;20023;-89
2022/03/16 00:48:01;;;;;;;82.45;39.72;;;;;;;4.13;100.00;95495.28;4944443;29;20073;-90
2022/03/16 00:50:27;;;;;;;81.28;38.88;;;;;;;4.12;100.00;95491.09;4928428;29;20134;-90
2022/03/16 00:52:53;;;;;;;82.85;39.88;;;;;;;3.95;100.00;95493.28;4944252;29;20027;-90
2022/03/16 00:55:19;;;;;;;82.03;40.35;;;;;;;3.92;100.00;95484.06;4928441;29;20031;-90
2022/03/16 00:57:44;;;;;;;81.22;41.40;;;;;;;3.94;100.00;95483.91;4928219;29;20085;-91
2022/03/16 01:00:10;;;;;;;90.63;42.22;;;;;;;4.02;100.00;95473.34;4928231;29;20023;-90
2022/03/16 01:02:36;;;;;;;89.80;43.20;;;;;;;3.88;100.00;95471.72;4943953;29;20033;-90
2022/03/16 01:05:02;;;;;;;83.47;42.78;;;;;;;3.83;100.00;95464.53;4960967;29;20027;-91
2022/03/16 01:07:27;;;;;;;93.80;44.13;;;;;;;3.70;100.00;95464.50;4943998;29;20030;-90
2022/03/16 01:09:53;;;;;;;88.40;42.28;;;;;;;3.64;100.00;95460.91;4943877;29;20027;-90
2022/03/16 01:12:18;;;;;;;88.10;41.80;;;;;;;3.78;100.00;95462.53;4943822;29;20023;-91
2022/03/16 01:14:44;;;;;;;94.35;42.85;;;;;;;3.90;100.00;95452.38;4927945;29;20027;-91
2022/03/16 01:17:10;;;;;;;87.55;42.22;;;;;;;3.93;100.00;95446.78;4943888;29;20027;-90
2022/03/16 01:19:35;;;;;;;85.90;42.78;;;;;;;3.79;100.00;95445.97;4959549;29;20095;-90
2022/03/16 01:22:05;;;;;;;84.15;41.53;;;;;;;3.81;100.00;95443.97;4943543;29;20023;-91
2022/03/16 01:24:31;;;;;;;79.75;39.40;;;;;;;3.97;100.00;95442.00;4943745;29;20033;-91
2022/03/16 01:26:56;;;;;;;76.32;38.78;;;;;;;4.05;100.00;95439.22;4943488;29;20396;-91
2022/03/16 01:29:24;;;;;;;85.85;40.03;;;;;;;3.99;100.00;95434.81;4943435;29;20340;-90
2022/03/16 01:31:51;;;;;;;84.88;41.10;;;;;;;3.98;100.00;95432.44;4942680;29;20453;-91
2022/03/16 01:34:16;;;;;;;82.32;40.83;;;;;;;3.98;100.00;95433.22;4959245;29;20062;-91
2022/03/16 01:36:42;;;;;;;85.65;39.60;;;;;;;3.98;100.00;95424.66;4927681;29;20066;-91
2022/03/16 01:39:07;;;;;;;88.25;41.15;;;;;;;3.91;100.00;95416.88;4943383;29;20023;-90
2022/03/16 01:41:33;;;;;;;81.18;39.65;;;;;;;3.92;100.00;95418.47;4959113;29;20433;-91
2022/03/16 01:43:58;;;;;;;86.82;39.05;;;;;;;4.13;100.00;95416.66;4959165;29;20019;-90
2022/03/16 01:46:24;;;;;;;83.68;39.78;;;;;;;4.00;100.00;95404.50;4943102;29;20070;-90
2022/03/16 01:48:53;;;;;;;81.38;39.80;;;;;;;3.78;100.00;95412.47;4959079;29;20035;-90
2022/03/16 01:51:19;;;;;;;83.10;39.22;;;;;;;3.63;100.00;95413.44;4958917;29;20079;-91
2022/03/16 01:53:45;;;;;;;76.78;39.08;;;;;;;3.57;100.00;95413.44;4927360;29;20074;-91
2022/03/16 01:56:11;;;;;;;71.03;34.65;;;;;;;3.82;100.00;95409.28;4959929;29;20066;-90
2022/03/16 01:58:36;;;;;;;70.43;35.67;;;;;;;3.72;100.00;95410.69;4960045;29;20023;-90
2022/03/16 02:01:02;;;;;;;69.05;33.83;;;;;;;3.79;100.00;95406.28;4958776;29;20031;-90
2022/03/16 02:03:28;;;;;;;73.07;36.33;;;;;;;3.72;100.00;95397.72;4927167;29;20095;-91
2022/03/16 02:05:54;;;;;;;59.13;28.00;;;;;;;3.77;100.00;95401.31;4927138;29;20440;-90
2022/03/16 02:08:20;;;;;;;65.55;31.70;;;;;;;3.84;100.00;95397.91;4942730;29;20456;-90
2022/03/16 02:10:45;;;;;;;65.30;30.63;;;;;;;3.79;100.00;95390.72;4942758;29;20040;-90
2022/03/16 02:13:11;;;;;;;67.75;31.27;;;;;;;3.49;100.00;95386.72;4942698;29;20027;-91
2022/03/16 02:15:36;;;;;;;67.03;32.97;;;;;;;3.31;100.00;95378.72;4942482;29;20034;-88
2022/03/16 02:18:02;;;;;;;58.40;30.45;;;;;;;3.23;100.00;95383.06;4943004;29;20105;-90
2022/03/16 02:20:28;;;;;;;65.10;30.50;;;;;;;3.32;100.00;95383.69;4927055;29;20027;-91
2022/03/16 02:23:02;;;;;;;57.65;28.50;;;;;;;3.24;100.00;95379.50;4942702;29;20340;-88
2022/03/16 02:25:29;;;;;;;62.30;30.67;;;;;;;3.18;100.00;95377.69;4942365;29;20023;-91
2022/03/16 02:27:55;;;;;;;77.38;33.25;;;;;;;3.17;100.00;95373.50;4942820;29;20019;-90
2022/03/16 02:30:22;;;;;;;69.22;32.30;;;;;;;3.11;100.00;95375.09;4926604;29;20428;-91
2022/03/16 02:32:48;;;;;;;60.83;31.10;;;;;;;3.07;100.00;95365.31;4958166;29;20055;-91
2022/03/16 02:35:14;;;;;;;79.50;34.10;;;;;;;3.13;100.00;95374.88;4926467;29;20460;-91
2022/03/16 02:37:39;;;;;;;79.35;36.25;;;;;;;3.13;100.00;95380.06;4942259;29;20027;-90
2022/03/16 02:40:07;;;;;;;72.03;34.03;;;;;;;3.08;100.00;95382.44;4957852;29;20034;-91
2022/03/16 02:42:33;;;;;;;71.32;34.80;;;;;;;3.30;100.00;95383.09;4922868;29;20047;-89
2022/03/16 02:44:58;;;;;;;75.68;35.60;;;;;;;3.45;100.00;95382.13;4923463;29;20020;-91
2022/03/16 02:47:24;;;;;;;78.72;36.88;;;;;;;3.48;100.00;95374.78;4938784;29;20100;-91
2022/03/16 02:49:51;;;;;;;80.15;39.08;;;;;;;3.58;100.00;95370.97;4923080;29;20031;-88
2022/03/16 02:52:16;;;;;;;85.03;39.25;;;;;;;3.63;100.00;95369.38;4931595;29;20031;-91
2022/03/16 02:54:41;;;;;;;79.53;37.65;;;;;;;3.45;100.00;95364.00;4922873;29;20098;-91
2022/03/16 02:57:07;;;;;;;79.28;36.72;;;;;;;3.36;100.00;95363.38;4923151;29;20463;-91
2022/03/16 02:59:34;;;;;;;88.47;39.70;;;;;;;3.50;100.00;95359.81;4907401;29;20460;-91
2022/03/16 03:02:00;;;;;;;84.38;38.40;;;;;;;3.54;100.00;95353.22;4922558;29;20086;-91
2022/03/16 03:04:25;;;;;;;81.60;36.15;;;;;;;3.48;100.00;95359.22;4922641;29;20028;-91
2022/03/16 03:06:51;;;;;;;75.53;36.65;;;;;;;3.49;100.00;95352.22;4907153;29;20497;-90
2022/03/16 03:09:16;;;;;;;84.45;38.90;;;;;;;3.61;100.00;95352.47;4922863;29;20044;-91
2022/03/16 03:11:41;;;;;;;74.53;35.95;;;;;;;3.60;100.00;95356.84;4922768;29;20070;-91
2022/03/16 03:14:07;;;;;;;79.15;37.35;;;;;;;3.56;100.00;95353.06;4907109;29;20074;-91
2022/03/16 03:16:32;;;;;;;73.85;36.10;;;;;;;3.59;100.00;95355.25;4922500;29;20439;-91
2022/03/16 03:18:59;;;;;;;79.85;38.92;;;;;;;3.73;100.00;95345.69;4922579;29;20032;-90
2022/03/16 03:21:24;;;;;;;77.28;37.67;;;;;;;3.76;100.00;95341.88;4907263;29;20027;-89
2022/03/16 03:23:50;;;;;;;76.00;37.40;;;;;;;3.80;100.00;95341.28;4922887;29;20114;-91
2022/03/16 03:26:15;;;;;;;73.35;35.35;;;;;;;3.81;100.00;95335.09;4906913;29;20027;-91
2022/03/16 03:28:40;;;;;;;79.13;35.28;;;;;;;3.70;100.00;95329.72;4938292;29;20430;-91
2022/03/16 03:31:06;;;;;;;69.93;35.22;;;;;;;3.66;100.00;95326.72;4906811;29;20057;-92
2022/03/16 03:33:31;;;;;;;75.05;36.10;;;;;;;3.54;100.00;95327.31;4922463;29;20036;-91
2022/03/16 03:35:57;;;;;;;83.35;38.63;;;;;;;3.62;100.00;95322.94;4922289;29;20036;-89
2022/03/16 03:38:23;;;;;;;77.03;36.13;;;;;;;3.49;100.00;95334.91;4927375;29;20035;-90
2022/03/16 03:40:48;;;;;;;68.38;34.22;;;;;;;3.57;100.00;95318.38;4941270;29;20054;-90
2022/03/16 03:43:14;;;;;;;71.68;35.15;;;;;;;3.51;100.00;95316.56;4957299;29;20090;-90
2022/03/16 03:45:39;;;;;;;75.95;35.55;;;;;;;3.49;100.00;95310.78;4957288;29;20034;-91
2022/03/16 03:48:12;;;;;;;79.80;37.30;;;;;;;3.39;100.00;95308.56;4957315;29;20348;-91
2022/03/16 03:50:37;;;;;;;75.53;35.92;;;;;;;3.45;100.00;95304.41;4941683;29;20035;-91
2022/03/16 03:53:03;;;;;;;71.55;35.08;;;;;;;3.50;100.00;95305.41;4941436;29;20034;-91
2022/03/16 03:55:28;;;;;;;68.95;33.80;;;;;;;3.44;100.00;95308.00;4959503;28;20062;-91
2022/03/16 03:57:54;;;;;;;69.07;34.65;;;;;;;3.33;100.00;95304.22;4945306;29;20427;-91
2022/03/16 04:00:19;;;;;;;77.25;35.15;;;;;;;3.30;100.00;95307.97;4945121;29;20027;-91
2022/03/16 04:02:49;;;;;;;80.57;35.40;;;;;;;3.23;100.00;95305.38;4961030;29;20042;-91
2022/03/16 04:05:16;;;;;;;79.15;34.40;;;;;;;3.28;100.00;95307.38;4945166;29;20035;-91
2022/03/16 04:07:42;;;;;;;65.32;33.28;;;;;;;3.25;100.00;95300.78;4944974;29;20114;-91
2022/03/16 04:10:08;;;;;;;71.25;34.78;;;;;;;3.18;100.00;95300.00;4944924;29;20033;-91
2022/03/16 04:12:34;;;;;;;70.90;35.47;;;;;;;3.19;100.00;95306.78;4951304;29;20434;-91
2022/03/16 04:14:59;;;;;;;66.78;32.03;;;;;;;3.39;100.00;95293.03;4928828;29;20045;-92
2022/03/16 04:17:25;;;;;;;71.93;34.88;;;;;;;3.22;100.00;95290.84;4944766;29;20349;-91
2022/03/16 04:19:50;;;;;;;74.85;33.13;;;;;;;3.20;100.00;95299.78;4928835;29;20063;-91
2022/03/16 04:22:16;;;;;;;80.93;35.00;;;;;;;3.22;100.00;95293.44;4928879;29;20042;-91
2022/03/16 04:24:41;;;;;;;69.47;34.92;;;;;;;3.30;100.00;95294.22;4928896;29;20531;-91
2022/03/16 04:27:07;;;;;;;76.43;35.67;;;;;;;3.21;100.00;95288.44;4944605;29;20031;-91
2022/03/16 04:29:32;;;;;;;69.03;33.63;;;;;;;3.24;100.00;95295.84;4944549;29;20070;-91
2022/03/16 04:31:58;;;;;;;68.93;33.60;;;;;;;3.15;100.00;95294.41;4960362;29;20035;-91
2022/03/16 04:34:23;;;;;;;72.22;33.70;;;;;;;3.04;100.00;95290.63;4944417;29;20031;-91
2022/03/16 04:36:49;;;;;;;93.00;33.80;;;;;;;2.96;100.00;95291.59;4944434;29;20042;-90
2022/03/16 04:39:14;;;;;;;70.45;33.90;;;;;;;3.14;100.00;95293.59;4928713;29;20039;-88
2022/03/16 04:41:40;;;;;;;72.07;35.05;;;;;;;3.27;100.00;95285.06;4944529;29;20042;-91
2022/03/16 04:44:05;;;;;;;70.47;34.50;;;;;;;3.12;100.00;95274.88;4928267;29;20129;-91
2022/03/16 04:46:31;;;;;;;67.43;33.72;;;;;;;3.03;100.00;95281.25;4944247;29;20038;-91
2022/03/16 04:48:56;;;;;;;74.07;35.75;;;;;;;3.31;100.00;95275.91;4944400;29;20058;-91
2022/03/16 04:51:22;;;;;;;76.75;36.90;;;;;;;3.38;100.00;95270.72;4943994;29;20035;-90
2022/03/16 04:53:47;;;;;;;88.57;36.50;;;;;;;3.24;100.00;95275.13;4944371;29;20038;-91
2022/03/16 04:56:13;;;;;;;75.60;34.90;;;;;;;3.01;100.00;95276.25;4943992;29;20046;-91
2022/03/16 04:58:39;;;;;;;70.90;34.78;;;;;;;3.02;100.00;95270.09;4928535;29;20035;-91
2022/03/16 05:01:05;;;;;;;75.43;36.38;;;;;;;3.20;100.00;95269.53;4943707;29;20035;-91
2022/03/16 05:03:30;;;;;;;82.63;37.30;;;;;;;3.06;100.00;95273.09;4959943;29;20092;-90
2022/03/16 05:05:56;;;;;;;80.78;39.33;;;;;;;2.84;100.00;95268.06;4959441;28;20081;-89
2022/03/16 05:08:21;;;;;;;89.55;39.60;;;;;;;2.83;100.00;95269.06;4950503;29;20079;-90
2022/03/16 05:10:47;;;;;;;92.70;41.92;;;;;;;2.87;100.00;95274.66;4943642;29;20445;-88
2022/03/16 05:13:12;;;;;;;90.72;41.72;;;;;;;3.14;100.00;95277.28;4961131;29;20031;-90
2022/03/16 05:15:38;;;;;;;90.60;41.92;;;;;;;3.15;100.00;95260.75;4959651;29;20045;-88
2022/03/16 05:18:03;;;;;;;85.95;41.58;;;;;;;2.96;100.00;95269.09;4928249;29;20046;-91
2022/03/16 05:20:29;;;;;;;93.88;43.03;;;;;;;2.91;100.00;95262.91;4959548;29;20067;-90
2022/03/16 05:22:55;;;;;;;96.15;41.45;;;;;;;2.73;100.00;95266.06;4960291;29;20094;-91
2022/03/16 05:25:26;;;;;;;86.85;41.35;;;;;;;2.76;100.00;95269.03;4943801;29;20059;-91
2022/03/16 05:27:52;;;;;;;85.25;38.85;;;;;;;2.86;100.00;95270.47;4960567;29;20058;-90
2022/03/16 05:30:20;;;;;;;92.22;42.13;;;;;;;2.95;100.00;95272.66;4943319;29;20081;-91
2022/03/16 05:32:45;;;;;;;90.90;39.95;;;;;;;2.86;100.00;95275.63;4943785;29;20348;-91
2022/03/16 05:35:12;;;;;;;93.15;41.38;;;;;;;2.80;100.00;95279.81;4943316;29;20035;-91
2022/03/16 05:37:38;;;;;;;88.75;42.10;;;;;;;2.90;100.00;95279.44;4943210;29;20122;-91
2022/03/16 05:40:05;;;;;;;101.85;46.28;;;;;;;2.99;100.00;95285.22;4943322;29;20429;-91
2022/03/16 05:42:31;;;;;;;87.68;41.42;;;;;;;3.01;100.00;95285.81;4943345;29;20030;-91
2022/03/16 05:44:56;;;;;;;89.20;43.25;;;;;;;2.96;100.00;95287.22;4927505;29;20034;-91
2022/03/16 05:47:22;;;;;;;91.80;40.97;;;;;;;2.97;100.00;95301.75;4943134;29;20065;-91
2022/03/16 05:49:52;;;;;;;97.85;43.45;;;;;;;2.96;100.00;95296.78;4942953;29;20081;-92
2022/03/16 05:52:21;;;;;;;96.47;43.15;;;;;;;3.02;100.00;95292.63;4932746;29;20078;-92
2022/03/16 05:54:48;;;;;;;99.93;45.72;;;;;;;3.21;100.00;95299.59;4939934;29;20485;-92
2022/03/16 05:57:15;;;;;;;105.47;47.33;;;;;;;3.32;100.00;95293.03;4940069;29;20341;-92
2022/03/16 05:59:41;;;;;;;89.00;43.42;;;;;;;3.53;100.00;95291.25;4938497;29;20031;-92
2022/03/16 06:02:06;;;;;;;92.65;43.85;;;;;;;3.59;100.00;95284.47;4943022;29;20465;-91
2022/03/16 06:04:32;;;;;;;85.90;42.00;;;;;;;3.66;100.00;95290.44;4923866;29;20093;-90
2022/03/16 06:06:57;;;;;;;89.65;41.88;;;;;;;3.77;100.00;95291.63;4939609;29;20036;-93
2022/03/16 06:09:23;;;;;;;89.20;41.28;;;;;;;3.93;100.00;95296.38;4923910;29;20031;-89
2022/03/16 06:11:48;;;;;;;99.43;44.20;;;;;;;4.00;100.00;95291.19;4952091;29;20421;-91
2022/03/16 06:14:13;;;;;;;88.78;42.08;;;;;;;4.07;100.00;95284.22;4958600;29;20031;-90
2022/03/16 06:16:39;;;;;;;84.72;41.30;;;;;;;4.08;100.00;95288.41;4942341;28;20118;-90
2022/03/16 06:19:04;;;;;;;91.53;42.20;;;;;;;4.16;100.00;95289.97;4942368;29;20090;-91
2022/03/16 06:21:30;;;;;;;90.72;40.58;;;;;;;4.24;100.00;95300.13;4942358;29;20066;-90
2022/03/16 06:23:55;;;;;;;92.88;41.72;;;;;;;4.48;100.00;95297.84;4942525;29;20341;-90
2022/03/16 06:26:21;;;;;;;83.25;38.22;;;;;;;4.65;100.00;95303.38;4958348;29;20029;-90
2022/03/16 06:28:46;;;;;;;78.28;37.70;;;;;;;4.75;100.00;95300.34;4959498;29;20325;-88
2022/03/16 06:31:12;;;;;;;74.53;37.40;;;;;;;4.72;100.00;95303.34;4958499;29;20027;-90
2022/03/16 06:33:37;;;;;;;85.10;37.08;;;;;;;4.67;100.00;95298.00;4958237;29;20027;-91
2022/03/16 06:36:03;;;;;;;75.50;37.10;;;;;;;4.86;100.00;95292.91;4958205;29;20110;-89
2022/03/16 06:38:28;;;;;;;72.03;37.42;;;;;;;5.13;100.00;95295.34;4942453;29;20089;-88
2022/03/16 06:40:53;;;;;;;73.03;35.72;;;;;;;4.97;100.00;95292.25;4958310;29;20322;-89
2022/03/16 06:43:21;;;;;;;75.82;35.97;;;;;;;5.06;100.00;95287.59;4958694;29;20090;-90
2022/03/16 06:45:46;;;;;;;78.47;36.40;;;;;;;4.99;100.00;95284.25;4958037;29;20098;-89
2022/03/16 06:48:12;;;;;;;73.78;34.95;;;;;;;5.19;100.00;95284.13;4958331;29;20034;-89
2022/03/16 06:50:37;;;;;;;70.22;35.05;;;;;;;5.40;100.00;95288.16;4942647;29;20034;-91
2022/03/16 06:53:03;;;;;;;71.28;33.97;;;;;;;5.59;100.00;95283.03;4942154;29;20027;-91
2022/03/16 06:55:28;;;;;;;68.00;33.95;;;;;;;5.75;100.00;95286.91;4957864;29;20127;-89
2022/03/16 06:57:54;;;;;;;78.00;37.63;;;;;;;5.79;100.00;95291.47;4942351;29;20373;-89
2022/03/16 07:00:19;;;;;;;75.85;36.03;;;;;;;5.75;100.00;95290.31;4957921;29;20031;-89
2022/03/16 07:02:54;;;;;;;76.28;36.75;;;;;;;5.92;100.00;95292.34;4959234;29;20027;-89
2022/03/16 07:05:21;;;;;;;78.28;36.00;;;;;;;5.90;100.00;95295.16;4942027;29;20027;-88
2022/03/16 07:07:46;;;;;;;67.72;35.13;;;;;;;6.02;100.00;95292.66;4942119;29;20035;-90
2022/03/16 07:10:12;;;;;;;72.78;36.13;;;;;;;5.94;100.00;95291.13;4941705;29;20443;-89
2022/03/16 07:12:37;;;;;;;69.13;35.53;;;;;;;6.08;100.00;95297.03;4957929;29;20425;-90
2022/03/16 07:15:03;;;;;;;69.43;31.95;;;;;;;6.28;100.00;95303.81;4941720;29;20109;-89
2022/03/16 07:17:28;;;;;;;59.03;31.75;;;;;;;6.40;100.00;95295.31;4958123;29;20089;-88
2022/03/16 07:19:54;;;;;;;61.90;32.33;;;;;;;6.35;100.00;95293.34;4942196;29;20027;-89
2022/03/16 07:22:19;;;;;;;61.13;32.85;;;;;;;6.49;100.00;95301.81;4957677;29;20027;-89
2022/03/16 07:24:45;;;;;;;61.78;31.85;;;;;;;6.60;100.00;95303.69;4940271;29;20421;-89
2022/03/16 07:27:12;;;;;;;61.40;30.92;;;;;;;6.60;100.00;95306.31;4941527;29;20090;-89
2022/03/16 07:29:38;;;;;;;74.10;36.97;;;;;;;6.57;100.00;95301.50;4941811;29;20027;-89
2022/03/16 07:32:04;;;;;;;63.00;32.22;;;;;;;6.85;100.00;95310.59;4941705;29;20113;-89
2022/03/16 07:34:30;;;;;;;61.80;31.80;;;;;;;6.86;100.00;95300.97;4957599;29;20062;-89
2022/03/16 07:36:55;;;;;;;68.88;33.25;;;;;;;7.25;100.00;95295.44;4957657;29;20519;-89
2022/03/16 07:39:21;;;;;;;66.47;32.15;;;;;;;7.27;100.00;95290.78;4925969;29;20130;-89
2022/03/16 07:41:46;;;;;;;53.75;27.58;;;;;;;7.25;100.00;95298.84;4925923;29;20039;-89
2022/03/16 07:44:11;;;;;;;53.70;26.83;;;;;;;7.39;100.00;95298.63;4941624;29;20045;-89
2022/03/16 07:46:37;;;;;;;60.97;31.05;;;;;;;7.33;100.00;95301.13;4941575;29;20020;-88
2022/03/16 07:49:02;;;;;;;55.95;29.77;;;;;;;7.33;100.00;95295.91;4925500;29;20031;-89
2022/03/16 07:51:28;;;;;;;65.78;28.80;;;;;;;7.45;100.00;95295.16;4958528;29;20378;-89
2022/03/16 07:53:54;;;;;;;59.10;28.67;;;;;;;7.32;100.00;95296.16;4926210;29;20448;-88
2022/03/16 07:56:19;;;;;;;68.82;30.25;;;;;;;7.33;100.00;95302.94;4925792;29;20130;-89
2022/03/16 07:58:45;;;;;;;63.05;31.15;;;;;;;7.61;100.00;95299.69;4941514;29;20031;-89
2022/03/16 08:01:11;;;;;;;53.63;27.48;;;;;;;7.73;100.00;95286.66;4941526;29;20345;-88
2022/03/16 08:03:36;;;;;;;57.03;29.05;;;;;;;7.66;100.00;95291.22;4958487;29;20063;-89
2022/03/16 08:06:02;;;;;;;55.65;29.30;;;;;;;7.83;100.00;95283.50;4925800;29;20032;-89
2022/03/16 08:08:28;;;;;;;51.72;27.23;;;;;;;7.88;100.00;95288.03;4957394;29;20042;-89
2022/03/16 08:10:54;;;;;;;53.15;27.48;;;;;;;8.09;100.00;95296.31;4941481;29;20031;-89
2022/03/16 08:13:19;;;;;;;53.47;26.92;;;;;;;7.99;100.00;95295.06;4957743;29;20035;-89
2022/03/16 08:15:45;;;;;;;61.45;28.25;;;;;;;8.02;100.00;95299.81;4941446;29;20441;-89
2022/03/16 08:18:10;;;;;;;52.72;26.90;;;;;;;8.20;100.00;95311.97;4925574;29;20038;-89
2022/03/16 08:20:36;;;;;;;52.35;27.50;;;;;;;8.42;100.00;95314.00;4941232;29;20066;-89
2022/03/16 08:23:01;;;;;;;49.28;25.20;;;;;;;8.56;100.00;95316.41;4941316;29;20089;-89
2022/03/16 08:25:27;;;;;;;51.92;23.20;;;;;;;8.83;100.00;95311.41;4941281;29;20036;-89
2022/03/16 08:27:53;;;;;;;38.83;22.20;;;;;;;8.74;100.00;95305.78;4957165;29;20058;-89
2022/03/16 08:30:18;;;;;;;39.70;22.38;;;;;;;9.13;100.00;95312.22;4941311;29;20031;-89
2022/03/16 08:32:44;;;;;;;39.33;20.98;;;;;;;9.21;100.00;95300.59;4941424;29;20117;-89
2022/03/16 08:35:11;;;;;;;42.25;22.30;;;;;;;9.24;100.00;95306.13;4925516;29;20102;-89
2022/03/16 08:37:46;;;;;;;35.17;19.98;;;;;;;9.21;100.00;95308.44;4941547;29;20039;-89
2022/03/16 08:40:15;;;;;;;37.80;17.05;;;;;;;9.32;100.00;95310.19;4925967;29;20031;-89
2022/03/16 08:42:40;;;;;;;30.30;16.35;;;;;;;9.78;100.00;95306.75;4945076;29;20035;-88
2022/03/16 08:45:06;;;;;;;34.45;17.35;;;;;;;9.57;100.00;95301.19;4944565;29;20023;-89
2022/03/16 08:47:32;;;;;;;34.08;16.63;;;;;;;9.67;100.00;95303.97;4960714;29;20420;-89
2022/03/16 08:49:57;;;;;;;30.33;16.48;;;;;;;9.98;100.00;95301.03;4944759;29;20038;-88
2022/03/16 08:52:23;;;;;;;30.90;15.90;;;;;;;10.01;100.00;95298.72;4961540;29;20027;-89
2022/03/16 08:54:48;;;;;;;29.65;15.07;;;;;;;10.16;100.00;95290.28;4944365;29;20035;-89
2022/03/16 08:57:15;;;;;;;30.90;15.20;;;;;;;10.32;100.00;95290.47;4944414;29;20027;-89
2022/03/16 08:59:41;;;;;;;33.80;16.15;;;;;;;10.37;100.00;95293.16;4944119;29;20027;-89
2022/03/16 09:02:08;;;;;;;29.08;15.90;;;;;;;10.28;100.00;95292.78;4928908;29;20027;-89
2022/03/16 09:04:34;;;;;;;30.67;16.80;;;;;;;10.40;100.00;95297.13;4960235;29;20063;-89
2022/03/16 09:07:00;;;;;;;29.25;15.20;;;;;;;10.42;100.00;95290.66;4928264;29;20030;-89
2022/03/16 09:09:26;;;;;;;30.73;16.08;;;;;;;10.33;100.00;95289.44;4928420;29;20429;-90
2022/03/16 09:11:51;;;;;;;27.08;15.63;;;;;;;10.36;100.00;95290.81;4943712;29;20454;-89
2022/03/16 09:14:17;;;;;;;31.00;16.08;;;;;;;10.15;100.00;95282.66;4944036;29;20027;-88
2022/03/16 09:16:44;;;;;;;35.00;16.70;;;;;;;10.07;100.00;95281.25;4943968;29;20035;-88
2022/03/16 09:19:10;;;;;;;31.15;15.55;;;;;;;10.25;100.00;95282.81;4944330;29;20417;-88
2022/03/16 09:21:35;;;;;;;33.55;16.00;;;;;;;10.18;100.00;95282.16;4943822;29;20085;-89
2022/03/16 09:24:01;;;;;;;31.25;15.55;;;;;;;10.23;100.00;95287.50;4960979;29;20034;-89
2022/03/16 09:26:27;;;;;;;25.88;13.75;;;;;;;10.43;100.00;95286.19;4943844;29;20027;-89
2022/03/16 09:28:52;;;;;;;24.25;13.95;;;;;;;10.65;100.00;95294.06;4943848;29;20042;-88
2022/03/16 09:31:20;;;;;;;26.45;13.27;;;;;;;10.85;100.00;95290.09;4943661;29;20038;-89
2022/03/16 09:33:46;;;;;;;32.75;14.85;;;;;;;10.82;100.00;95288.75;4943900;29;20034;-89
2022/03/16 09:36:12;;;;;;;29.40;14.00;;;;;;;11.32;100.00;95284.25;4959610;29;20027;-89
2022/03/16 09:38:38;;;;;;;25.83;14.00;;;;;;;11.39;100.00;95281.44;4959319;29;20027;-89
2022/03/16 09:41:04;;;;;;;26.75;14.00;;;;;;;11.55;97.99;95276.31;4943592;29;20034;-89
2022/03/16 09:43:35;;;;;;;22.17;13.63;;;;;;;11.44;90.81;95276.22;4959215;29;20027;-88
2022/03/16 09:46:09;;;;;;;30.17;13.70;;;;;;;11.17;100.00;95261.28;4943669;29;20126;-89
2022/03/16 09:48:39;;;;;;;28.38;13.82;;;;;;;11.45;100.00;95262.06;4959423;29;20027;-88
2022/03/16 09:51:12;;;;;;;25.30;13.32;;;;;;;11.38;100.00;95264.09;4943278;29;20031;-89
2022/03/16 09:53:38;;;;;;;23.02;13.75;;;;;;;11.61;100.00;95254.28;4942634;29;20110;-89
2022/03/16 09:56:05;;;;;;;24.23;13.95;;;;;;;11.39;100.00;95249.13;4927514;29;20322;-89
2022/03/16 09:58:31;;;;;;;24.25;13.13;;;;;;;11.38;100.00;95240.50;4943382;29;20074;-89
2022/03/16 10:00:56;;;;;;;25.20;12.68;;;;;;;11.69;100.00;95245.97;4959022;29;20118;-88
2022/03/16 10:03:23;;;;;;;23.55;13.30;;;;;;;11.62;100.00;95242.78;4943475;29;20123;-89
2022/03/16 10:05:50;;;;;;;29.65;12.85;;;;;;;11.51;95.51;95235.88;4927440;29;20329;-88
2022/03/16 10:08:27;;;;;;;26.48;12.77;;;;;;;11.70;90.69;95231.03;4927461;29;20031;-88
2022/03/16 10:14:07;;;;;;;21.58;11.98;;;;;;;11.62;93.02;95219.16;4945579;29;20106;-89
2022/03/16 10:17:43;;;;;;;27.92;12.95;;;;;;;11.23;97.51;95222.00;4927210;29;20388;-89
2022/03/16 10:19:22;;;;;;;20.52;10.90;;;;;;;11.79;100.00;95211.09;4945849;29;20068;-88
2022/03/16 10:22:26;;;;;;;22.00;11.90;;;;;;;11.84;96.06;95218.22;4942856;29;20429;-89
2022/03/16 10:25:02;;;;;;;25.75;11.75;;;;;;;11.61;100.00;95222.78;4949841;29;20043;-88
2022/03/16 10:27:28;;;;;;;20.52;11.05;;;;;;;11.70;97.76;95218.66;4942887;29;20440;-89
2022/03/16 10:29:55;;;;;;;19.88;11.32;;;;;;;12.07;100.00;95205.78;4942954;29;20074;-89
2022/03/16 10:32:24;;;;;;;21.38;10.00;;;;;;;12.20;92.78;95205.31;4927059;29;20122;-88
2022/03/16 10:34:55;;;;;;;24.65;11.35;;;;;;;12.36;96.68;95198.28;4942984;29;20031;-88
2022/03/16 10:37:21;;;;;;;23.85;10.57;;;;;;;12.32;94.88;95194.59;4958464;29;20031;-88
2022/03/16 10:39:49;;;;;;;20.50;9.95;;;;;;;11.87;94.28;95189.63;4942587;29;20027;-88
2022/03/16 10:47:58;;;;;;;17.70;9.95;;;;;;;12.13;88.61;95183.72;4945016;29;20038;-89
2022/03/16 10:50:23;;;;;;;27.20;11.25;;;;;;;11.77;97.43;95171.19;4958179;29;20031;-88
2022/03/16 10:52:50;;;;;;;21.35;11.32;;;;;;;12.05;100.00;95171.06;4942292;29;20424;-88
2022/03/16 10:55:17;;;;;;;18.38;10.55;;;;;;;12.80;100.00;95165.53;4926310;29;20039;-88
2022/03/16 10:57:43;;;;;;;19.02;10.15;;;;;;;12.84;100.00;95171.06;4942159;29;20027;-88
2022/03/16 11:00:09;;;;;;;23.02;11.80;;;;;;;12.42;95.95;95160.47;4942195;29;20028;-88
2022/03/16 11:02:34;;;;;;;23.52;12.10;;;;;;;12.58;100.00;95163.13;4958058;29;20109;-89
2022/03/16 11:05:00;;;;;;;23.95;12.15;;;;;;;12.67;87.97;95169.44;4941799;29;20488;-89
2022/03/16 11:07:26;;;;;;;23.75;12.85;;;;;;;12.79;100.00;95150.78;4942078;29;20031;-89
2022/03/16 11:09:51;;;;;;;25.30;12.60;;;;;;;12.87;99.55;95158.16;4957930;29;20101;-89
2022/03/16 11:15:05;;;;;;;23.83;12.27;;;;;;;12.99;98.17;95155.28;4944461;29;20038;-89
2022/03/16 11:17:31;;;;;;;21.50;11.70;;;;;;;13.50;92.37;95155.53;4926534;29;20093;-88
2022/03/16 11:19:59;;;;;;;24.42;11.88;;;;;;;13.46;83.33;95160.53;4957755;29;20095;-89
2022/03/16 11:22:27;;;;;;;26.00;13.13;;;;;;;12.95;82.09;95150.81;4942071;29;20439;-89
2022/03/16 11:25:03;;;;;;;31.05;14.48;;;;;;;12.82;81.14;95147.63;4926365;29;20125;-89